Time;durP1;ratioP1;P1;durP2;ratioP2;P2;SDS_P1;SDS_P2;PMS_P1;PMS_P2;Temp;Humidity;BMP_temperature;BMP_pressure;BME280_temperature;BME280_humidity;BME280_pressure;Samples;Min_cycle;Max_cycle;Signal;HPM_P1;HPM_P2
2022/05/12 00:00:25;;;;;;;2.90;2.70;;;22.60;54.70;;;;;;5073394;28;20240;-71
2022/05/12 00:02:51;;;;;;;2.80;2.60;;;22.70;55.20;;;;;;5072961;28;20865;-71
2022/05/12 00:05:18;;;;;;;3.40;2.37;;;22.80;56.40;;;;;;5072879;28;20565;-71
2022/05/12 00:07:44;;;;;;;3.50;2.80;;;22.70;56.30;;;;;;5073191;28;20198;-71
2022/05/12 00:10:11;;;;;;;3.40;2.77;;;22.60;56.50;;;;;;5056142;28;20397;-72
2022/05/12 00:12:38;;;;;;;2.97;2.73;;;22.50;57.60;;;;;;5062947;28;20529;-71
2022/05/12 00:15:07;;;;;;;2.97;2.67;;;22.50;58.80;;;;;;5073264;28;20813;-71
2022/05/12 00:17:33;;;;;;;3.10;2.50;;;22.40;58.50;;;;;;5073622;28;20928;-70
2022/05/12 00:20:00;;;;;;;3.00;2.70;;;22.40;58.70;;;;;;5072901;28;20458;-70
2022/05/12 00:22:26;;;;;;;6.20;2.60;;;22.40;59.00;;;;;;5054094;28;20639;-71
2022/05/12 00:24:52;;;;;;;5.07;3.00;;;22.30;58.90;;;;;;5055160;28;20408;-70
2022/05/12 00:27:17;;;;;;;3.47;2.77;;;22.30;60.10;;;;;;5072626;28;20454;-70
2022/05/12 00:29:43;;;;;;;3.53;3.03;;;22.30;59.30;;;;;;5072758;28;20174;-71
2022/05/12 00:32:09;;;;;;;4.73;3.10;;;22.30;59.20;;;;;;5072584;28;20166;-71
2022/05/12 00:34:34;;;;;;;4.13;2.83;;;22.30;59.50;;;;;;5072155;28;20174;-72
2022/05/12 00:37:00;;;;;;;3.63;3.33;;;22.30;60.20;;;;;;5071386;28;20666;-71
2022/05/12 00:39:25;;;;;;;2.97;2.77;;;22.10;60.70;;;;;;5073029;28;20541;-71
2022/05/12 00:41:51;;;;;;;3.60;2.90;;;22.00;61.60;;;;;;5072358;28;20642;-72
2022/05/12 00:44:16;;;;;;;3.40;3.07;;;21.90;62.40;;;;;;5071832;28;20219;-71
2022/05/12 00:46:44;;;;;;;3.37;3.07;;;21.90;60.00;;;;;;5072380;28;20177;-71
2022/05/12 00:49:18;;;;;;;3.30;3.00;;;22.00;62.40;;;;;;5073049;28;20259;-71
2022/05/12 00:52:30;;;;;;;4.10;3.40;;;22.10;60.90;;;;;;5069822;28;20435;-72
2022/05/12 00:55:06;;;;;;;3.37;3.07;;;22.10;60.30;;;;;;5067990;28;20872;-71
2022/05/12 00:57:41;;;;;;;3.70;3.00;;;22.30;61.30;;;;;;5071613;28;20439;-71
2022/05/12 01:00:11;;;;;;;3.93;3.57;;;22.30;62.00;;;;;;5072712;28;20816;-71
2022/05/12 01:02:39;;;;;;;3.33;3.03;;;22.30;61.90;;;;;;5072599;28;20990;-71
2022/05/12 01:05:06;;;;;;;3.83;3.43;;;22.20;61.50;;;;;;5072220;28;20416;-71
2022/05/12 01:07:32;;;;;;;3.63;3.10;;;22.20;62.20;;;;;;5070867;28;20610;-71
2022/05/12 01:10:00;;;;;;;3.30;2.97;;;22.20;62.20;;;;;;5071529;28;20503;-71
2022/05/12 01:12:26;;;;;;;4.10;3.40;;;22.20;62.70;;;;;;5069959;28;20170;-71
2022/05/12 01:14:52;;;;;;;4.13;2.97;;;21.90;62.30;;;;;;5072654;28;20969;-71
2022/05/12 01:17:19;;;;;;;3.00;2.80;;;21.90;63.70;;;;;;5073031;28;20432;-71
2022/05/12 01:19:46;;;;;;;3.00;2.80;;;21.90;63.90;;;;;;5072973;28;20411;-71
2022/05/12 01:22:39;;;;;;;4.10;3.70;;;21.90;64.20;;;;;;5071382;28;20508;-70
2022/05/12 01:25:19;;;;;;;3.63;3.33;;;21.90;63.60;;;;;;5073098;28;20729;-70
2022/05/12 01:27:45;;;;;;;3.63;3.23;;;22.00;63.90;;;;;;5054992;28;20427;-71
2022/05/12 01:30:14;;;;;;;3.80;3.50;;;22.00;63.30;;;;;;5072833;28;20446;-71
2022/05/12 01:32:40;;;;;;;4.20;3.07;;;21.90;65.00;;;;;;5071927;28;20447;-71
2022/05/12 01:35:06;;;;;;;3.27;2.97;;;21.90;64.70;;;;;;5072560;28;20403;-71
2022/05/12 01:37:36;;;;;;;8.50;3.00;;;21.80;65.50;;;;;;5072738;28;20424;-71
2022/05/12 01:40:03;;;;;;;3.87;3.07;;;21.70;65.80;;;;;;5073405;28;20393;-71
2022/05/12 01:42:29;;;;;;;3.67;3.17;;;21.80;65.50;;;;;;5073040;28;20488;-71
2022/05/12 01:44:54;;;;;;;4.70;3.50;;;21.80;65.80;;;;;;5071583;28;20495;-70
2022/05/12 01:47:20;;;;;;;3.73;3.37;;;21.80;66.80;;;;;;5072281;28;20228;-70
2022/05/12 01:49:48;;;;;;;3.67;3.37;;;21.70;67.00;;;;;;5054117;28;20226;-71
2022/05/12 01:52:14;;;;;;;4.13;3.73;;;21.40;68.10;;;;;;5072471;28;20408;-70
2022/05/12 01:54:39;;;;;;;3.77;3.47;;;21.10;69.50;;;;;;5071384;28;20424;-70
2022/05/12 01:57:05;;;;;;;4.00;2.70;;;21.10;70.60;;;;;;5075417;28;20476;-71
2022/05/12 01:59:31;;;;;;;4.40;4.00;;;21.10;70.90;;;;;;5075982;28;20265;-70
2022/05/12 02:01:56;;;;;;;3.60;3.30;;;21.00;71.30;;;;;;5074630;28;20456;-70
2022/05/12 02:04:22;;;;;;;3.30;3.00;;;20.90;72.30;;;;;;5057929;28;20249;-70
2022/05/12 02:06:48;;;;;;;5.30;3.17;;;20.50;73.60;;;;;;5056115;28;20174;-71
2022/05/12 02:09:14;;;;;;;3.40;3.10;;;20.40;74.40;;;;;;5055987;28;20250;-70
2022/05/12 02:11:39;;;;;;;3.53;3.23;;;20.30;75.40;;;;;;5055895;28;20654;-71
2022/05/12 02:14:06;;;;;;;3.53;3.23;;;20.30;76.80;;;;;;5055857;28;20495;-70
2022/05/12 02:16:33;;;;;;;3.60;3.30;;;20.20;76.90;;;;;;5055651;28;20692;-70
2022/05/12 02:19:01;;;;;;;5.10;3.40;;;20.20;76.90;;;;;;5053716;28;21050;-70
2022/05/12 02:21:26;;;;;;;3.50;3.20;;;20.20;77.20;;;;;;5055593;28;20897;-71
2022/05/12 02:23:52;;;;;;;6.03;3.83;;;20.10;78.10;;;;;;5055591;28;20484;-70
2022/05/12 02:26:18;;;;;;;4.13;3.73;;;20.00;78.40;;;;;;5055564;28;20175;-71
2022/05/12 02:28:43;;;;;;;3.80;3.50;;;19.90;79.50;;;;;;5055413;28;20251;-72
2022/05/12 02:31:09;;;;;;;3.67;3.40;;;20.00;80.60;;;;;;5067528;28;20225;-71
2022/05/12 02:33:35;;;;;;;4.60;3.13;;;19.90;81.60;;;;;;5074910;28;20178;-71
2022/05/12 02:36:02;;;;;;;4.23;3.83;;;19.90;81.80;;;;;;5074438;28;20185;-71
2022/05/12 02:38:28;;;;;;;4.83;4.00;;;19.70;83.00;;;;;;5075881;28;20682;-70
2022/05/12 02:40:54;;;;;;;4.00;3.60;;;19.70;84.20;;;;;;5056990;28;20412;-71
2022/05/12 02:43:26;;;;;;;4.10;3.47;;;19.70;84.50;;;;;;5075215;28;20936;-71
2022/05/12 02:46:03;;;;;;;4.10;3.70;;;19.60;85.10;;;;;;5075580;28;20166;-71
2022/05/12 02:48:35;;;;;;;3.43;3.13;;;19.70;86.10;;;;;;5073909;28;20427;-72
2022/05/12 02:51:01;;;;;;;3.80;3.50;;;19.60;86.20;;;;;;5075192;28;20550;-72
2022/05/12 02:53:28;;;;;;;3.63;3.23;;;19.60;86.90;;;;;;5074452;28;20434;-72
2022/05/12 02:55:54;;;;;;;4.60;3.97;;;19.50;87.60;;;;;;5074104;28;20584;-72
2022/05/12 02:58:20;;;;;;;3.93;3.63;;;19.50;88.70;;;;;;5103920;22;20483;-71
2022/05/12 03:00:46;;;;;;;5.83;3.50;;;19.50;90.00;;;;;;5056729;28;20788;-70
2022/05/12 03:03:13;;;;;;;3.80;3.50;;;19.30;90.30;;;;;;5075100;28;20908;-70
2022/05/12 03:05:39;;;;;;;3.50;3.20;;;19.40;91.20;;;;;;5056297;28;20928;-71
2022/05/12 03:08:06;;;;;;;4.10;3.67;;;19.40;91.30;;;;;;5074194;28;20490;-71
2022/05/12 03:10:33;;;;;;;3.63;3.33;;;19.50;91.60;;;;;;5073178;28;20418;-71
2022/05/12 03:12:59;;;;;;;6.07;3.80;;;19.50;92.00;;;;;;5075078;28;20796;-71
2022/05/12 03:15:24;;;;;;;6.13;3.73;;;19.50;92.60;;;;;;5074378;28;20397;-71
2022/05/12 03:17:51;;;;;;;4.70;3.50;;;19.50;93.10;;;;;;5073381;28;20202;-71
2022/05/12 03:20:19;;;;;;;4.10;3.53;;;19.30;93.50;;;;;;5074289;28;20542;-71
2022/05/12 03:22:45;;;;;;;5.80;3.90;;;19.20;94.70;;;;;;5073280;28;20503;-71
2022/05/12 03:25:12;;;;;;;3.73;3.43;;;19.20;95.20;;;;;;5074601;28;20432;-70
2022/05/12 03:27:38;;;;;;;4.70;3.37;;;19.20;95.60;;;;;;5074771;28;20639;-71
2022/05/12 03:30:07;;;;;;;4.57;4.10;;;19.20;96.20;;;;;;5056527;28;20884;-71
2022/05/12 03:32:33;;;;;;;3.97;3.60;;;19.10;96.70;;;;;;5074778;28;20454;-71
2022/05/12 03:34:59;;;;;;;3.80;3.50;;;19.20;97.20;;;;;;5074054;28;20405;-69
2022/05/12 03:40:47;;;;;;;3.97;3.60;;;19.10;98.10;;;;;;5072669;28;20714;-71
2022/05/12 03:44:46;;;;;;;3.97;3.67;;;19.20;98.70;;;;;;5074143;28;20447;-71
2022/05/12 03:45:59;;;;;;;3.60;3.30;;;19.20;99.00;;;;;;5042780;28;20421;-70
2022/05/12 03:48:25;;;;;;;4.00;3.57;;;19.10;99.70;;;;;;5054106;28;20429;-70
2022/05/12 03:50:51;;;;;;;4.20;3.63;;;19.00;99.90;;;;;;5054468;28;20446;-71
2022/05/12 03:53:16;;;;;;;6.07;3.80;;;18.90;99.90;;;;;;5054014;28;20488;-71
2022/05/12 03:55:42;;;;;;;4.93;3.80;;;19.00;99.90;;;;;;5054080;28;20547;-69
2022/05/12 03:58:08;;;;;;;3.60;3.30;;;19.10;99.90;;;;;;5053629;28;20202;-69
2022/05/12 04:00:34;;;;;;;5.73;4.30;;;19.20;99.90;;;;;;5031278;28;20179;-70
2022/05/12 04:03:01;;;;;;;4.63;3.93;;;19.10;99.90;;;;;;5034132;28;20421;-70
2022/05/12 04:05:28;;;;;;;4.63;3.20;;;19.10;99.90;;;;;;5033561;28;20410;-70
2022/05/12 04:07:54;;;;;;;4.53;3.90;;;19.00;99.90;;;;;;5033767;28;20433;-70
2022/05/12 04:10:21;;;;;;;3.77;3.10;;;19.10;99.90;;;;;;5037650;28;20784;-70
2022/05/12 04:12:47;;;;;;;3.83;3.50;;;19.20;99.90;;;;;;5073744;28;20432;-69
2022/05/12 04:15:15;;;;;;;5.23;3.93;;;19.20;99.90;;;;;;5073959;28;20956;-71
2022/05/12 04:17:41;;;;;;;3.33;3.03;;;19.20;99.90;;;;;;5073522;28;20436;-70
2022/05/12 04:20:12;;;;;;;4.93;3.57;;;19.30;99.90;;;;;;5073360;28;20491;-70
2022/05/12 04:22:40;;;;;;;4.83;3.53;;;19.30;99.90;;;;;;5073824;28;20962;-70
2022/05/12 04:25:06;;;;;;;6.80;4.97;;;19.40;99.90;;;;;;5073829;28;20473;-70
2022/05/12 04:27:36;;;;;;;5.03;4.43;;;19.20;99.90;;;;;;5073380;28;20478;-69
2022/05/12 04:30:02;;;;;;;6.23;4.30;;;19.30;99.90;;;;;;5073352;28;20487;-69
2022/05/12 04:32:28;;;;;;;4.17;3.77;;;19.40;99.90;;;;;;5072098;28;20403;-71
2022/05/12 04:35:12;;;;;;;7.10;4.17;;;19.50;99.90;;;;;;5073339;28;20396;-70
2022/05/12 04:37:45;;;;;;;3.77;3.43;;;19.50;99.90;;;;;;5073013;28;20677;-69
2022/05/12 04:40:18;;;;;;;5.13;3.30;;;19.60;99.90;;;;;;5071778;28;20442;-70
2022/05/12 04:42:44;;;;;;;3.70;3.30;;;19.50;99.90;;;;;;5054885;28;20465;-70
2022/05/12 04:45:12;;;;;;;3.73;3.20;;;19.60;99.90;;;;;;5073389;28;20789;-71
2022/05/12 04:47:39;;;;;;;4.40;3.10;;;19.60;99.90;;;;;;5073289;28;20474;-70
2022/05/12 04:50:07;;;;;;;3.57;3.27;;;19.60;99.90;;;;;;5072719;28;20409;-70
2022/05/12 04:52:33;;;;;;;4.13;3.30;;;19.60;99.90;;;;;;5055244;28;20449;-71
2022/05/12 04:54:59;;;;;;;3.60;3.30;;;19.60;99.90;;;;;;5071762;28;20451;-70
2022/05/12 04:57:25;;;;;;;3.90;2.90;;;19.60;99.90;;;;;;5072662;28;20400;-70
2022/05/12 04:59:55;;;;;;;3.77;3.23;;;19.60;99.90;;;;;;5072539;28;20196;-70
2022/05/12 05:02:22;;;;;;;5.23;2.53;;;19.50;99.90;;;;;;5072730;28;20155;-71
2022/05/12 05:04:48;;;;;;;3.77;2.90;;;19.60;99.90;;;;;;5054549;28;20404;-69
2022/05/12 05:07:13;;;;;;;4.57;2.90;;;19.60;99.90;;;;;;5072664;28;20400;-71
2022/05/12 05:09:41;;;;;;;2.90;2.70;;;19.60;99.90;;;;;;5054624;28;20480;-71
2022/05/12 05:12:07;;;;;;;3.30;3.00;;;19.60;99.90;;;;;;5073315;28;20295;-70
2022/05/12 05:14:32;;;;;;;3.23;2.60;;;19.80;99.90;;;;;;5072539;28;20439;-70
2022/05/12 05:16:59;;;;;;;8.97;3.37;;;19.90;99.90;;;;;;5072924;28;20886;-71
2022/05/12 05:19:25;;;;;;;3.43;3.07;;;19.90;99.90;;;;;;5071588;28;20201;-72
2022/05/12 05:21:50;;;;;;;5.40;3.33;;;19.80;99.90;;;;;;5072514;28;20776;-70
2022/05/12 05:24:16;;;;;;;2.63;2.43;;;20.10;99.90;;;;;;5072833;28;20657;-70
2022/05/12 05:26:41;;;;;;;2.83;2.53;;;20.20;99.90;;;;;;5072864;28;20219;-72
2022/05/12 05:29:07;;;;;;;3.63;2.67;;;20.40;99.90;;;;;;5072749;28;20651;-67
2022/05/12 05:31:39;;;;;;;3.77;3.03;;;20.50;99.90;;;;;;5056185;28;20180;-70
2022/05/12 05:34:04;;;;;;;3.77;2.90;;;20.60;99.90;;;;;;5077141;28;20474;-70
2022/05/12 05:36:30;;;;;;;4.50;3.13;;;20.80;99.90;;;;;;5076893;28;20408;-70
2022/05/12 05:38:56;;;;;;;2.57;2.37;;;20.90;99.90;;;;;;5076800;28;20237;-70
2022/05/12 05:41:22;;;;;;;3.43;2.60;;;20.80;99.90;;;;;;5076824;28;20400;-69
2022/05/12 05:43:48;;;;;;;5.70;2.17;;;20.70;99.90;;;;;;5076681;28;20578;-71
2022/05/12 05:46:13;;;;;;;4.30;2.30;;;20.60;99.90;;;;;;5077367;28;20416;-70
2022/05/12 05:48:39;;;;;;;3.20;1.90;;;20.70;99.90;;;;;;5076772;28;20567;-72
2022/05/12 05:53:49;;;;;;;4.80;2.60;;;20.70;99.90;;;;;;5076857;28;20193;-71
2022/05/12 05:56:15;;;;;;;3.83;2.40;;;20.80;99.90;;;;;;5059726;28;20819;-70
2022/05/12 05:58:43;;;;;;;4.57;2.90;;;20.80;99.90;;;;;;5036075;28;20218;-71
2022/05/12 06:01:09;;;;;;;19.92;17.98;;;20.80;99.90;;;;;;5035395;28;20487;-69
2022/05/12 06:03:34;;;;;;;2.50;2.30;;;21.20;99.90;;;;;;5036435;28;20159;-70
2022/05/12 06:06:01;;;;;;;3.20;2.90;;;20.90;99.90;;;;;;5035302;28;20728;-71
2022/05/12 06:08:26;;;;;;;6.20;3.07;;;20.80;99.90;;;;;;5036112;28;20187;-71
2022/05/12 06:10:52;;;;;;;4.57;2.53;;;20.90;99.90;;;;;;5036284;28;20402;-71
2022/05/12 06:13:18;;;;;;;5.50;2.77;;;20.90;99.90;;;;;;5036324;28;20168;-70
2022/05/12 06:15:43;;;;;;;5.47;2.53;;;20.80;99.90;;;;;;5018424;28;20662;-69
2022/05/12 06:18:15;;;;;;;2.50;2.30;;;20.90;99.90;;;;;;5025001;28;20199;-73
2022/05/12 06:20:43;;;;;;;2.63;2.40;;;20.90;99.90;;;;;;5056185;28;20163;-70
2022/05/12 06:23:10;;;;;;;4.00;2.00;;;21.10;99.90;;;;;;5055937;28;20408;-70
2022/05/12 06:25:36;;;;;;;2.83;2.20;;;21.30;99.90;;;;;;5059900;28;20425;-70
2022/05/12 06:28:02;;;;;;;5.60;2.97;;;21.30;99.90;;;;;;5075272;28;20602;-70
2022/05/12 06:30:29;;;;;;;2.60;2.40;;;21.50;99.90;;;;;;5075595;28;20404;-70
2022/05/12 06:32:56;;;;;;;1.80;1.70;;;21.60;99.90;;;;;;5069734;28;20301;-70
2022/05/12 06:35:23;;;;;;;3.70;2.20;;;21.60;99.90;;;;;;5045566;28;20764;-70
2022/05/12 06:37:49;;;;;;;2.60;2.37;;;21.70;99.90;;;;;;5035831;28;20872;-70
2022/05/12 06:40:15;;;;;;;5.60;2.80;;;21.50;99.90;;;;;;5035539;28;20402;-70
2022/05/12 06:42:41;;;;;;;4.73;2.57;;;21.70;99.90;;;;;;5034291;28;20544;-72
2022/05/12 06:45:09;;;;;;;3.67;2.17;;;21.90;99.90;;;;;;5035376;28;20856;-72
2022/05/12 06:47:34;;;;;;;5.90;2.43;;;21.90;99.90;;;;;;5035853;28;20175;-70
2022/05/12 06:50:03;;;;;;;3.03;2.03;;;21.90;99.90;;;;;;5036002;28;20468;-73
2022/05/12 06:52:29;;;;;;;3.43;2.50;;;21.90;99.90;;;;;;5017995;28;20171;-72
2022/05/12 06:54:55;;;;;;;2.37;2.00;;;22.00;99.90;;;;;;5035425;28;20464;-72
2022/05/12 06:57:23;;;;;;;7.43;3.27;;;22.10;99.90;;;;;;5074068;28;20447;-72
2022/05/12 06:59:50;;;;;;;4.40;2.70;;;21.90;99.90;;;;;;5075030;28;20443;-72
2022/05/12 07:02:15;;;;;;;7.20;2.43;;;22.00;99.90;;;;;;5075330;28;20450;-72
2022/05/12 07:04:41;;;;;;;2.63;2.30;;;21.60;99.90;;;;;;5057248;28;20409;-71
2022/05/12 07:07:07;;;;;;;3.90;2.53;;;21.60;99.90;;;;;;5075630;28;20173;-69
2022/05/12 07:09:33;;;;;;;4.23;2.60;;;21.50;99.90;;;;;;5075068;28;20268;-72
2022/05/12 07:11:59;;;;;;;2.97;2.67;;;21.40;99.90;;;;;;5074971;28;20396;-71
2022/05/12 07:14:25;;;;;;;4.73;2.53;;;21.70;99.90;;;;;;5074664;28;20197;-73
2022/05/12 07:16:50;;;;;;;2.43;2.23;;;21.70;99.90;;;;;;5075024;28;20177;-72
2022/05/12 07:19:16;;;;;;;2.80;1.90;;;21.80;99.90;;;;;;5075029;28;20467;-73
2022/05/12 07:27:12;;;;;;;3.47;2.27;;;22.10;99.90;;;;;;5073176;28;20565;-74
2022/05/12 07:29:38;;;;;;;3.80;2.00;;;22.20;99.90;;;;;;5074775;28;20886;-74
2022/05/12 07:32:04;;;;;;;2.83;1.73;;;22.20;99.90;;;;;;5075112;28;20173;-72
2022/05/12 07:34:30;;;;;;;3.37;2.60;;;21.80;99.90;;;;;;5075044;28;20227;-72
2022/05/12 07:36:56;;;;;;;6.00;2.87;;;21.70;99.90;;;;;;5074749;28;20404;-73
2022/05/12 07:39:27;;;;;;;6.00;2.30;;;22.00;99.90;;;;;;5074753;28;20201;-70
2022/05/12 07:41:53;;;;;;;2.80;2.27;;;22.10;99.90;;;;;;5055085;28;20422;-69
2022/05/12 07:44:19;;;;;;;3.80;2.30;;;22.10;99.90;;;;;;5074094;28;20810;-71
2022/05/12 07:46:46;;;;;;;3.57;2.50;;;22.10;99.90;;;;;;5056355;28;20408;-72
2022/05/12 07:49:12;;;;;;;2.30;2.10;;;22.10;99.90;;;;;;5074281;28;20194;-72
2022/05/12 07:51:38;;;;;;;7.43;2.30;;;22.30;99.90;;;;;;5074146;28;20531;-75
2022/05/12 07:54:04;;;;;;;2.37;2.17;;;22.40;99.90;;;;;;5031189;28;20501;-73
2022/05/12 07:56:30;;;;;;;2.57;2.27;;;22.00;99.90;;;;;;5034362;28;20175;-72
2022/05/12 07:58:57;;;;;;;2.83;2.40;;;22.00;99.90;;;;;;5033665;28;20966;-73
2022/05/12 08:01:24;;;;;;;3.37;2.03;;;21.90;99.90;;;;;;5034732;28;20168;-72
2022/05/12 08:03:51;;;;;;;3.00;2.10;;;21.90;99.90;;;;;;5034384;28;20421;-72
2022/05/12 08:06:17;;;;;;;7.43;2.43;;;22.00;99.90;;;;;;5034848;28;20398;-72
2022/05/12 08:08:45;;;;;;;3.10;2.10;;;22.10;99.90;;;;;;5035050;28;20426;-72
2022/05/12 08:11:11;;;;;;;4.30;2.47;;;22.10;99.90;;;;;;5059560;28;20416;-71
2022/05/12 08:13:38;;;;;;;3.07;2.40;;;22.10;99.90;;;;;;5073781;28;21016;-72
2022/05/12 08:16:05;;;;;;;3.53;2.40;;;22.10;99.90;;;;;;5073974;28;20415;-72
2022/05/12 08:18:32;;;;;;;3.20;2.30;;;22.10;99.90;;;;;;5073650;28;20984;-71
2022/05/12 08:20:58;;;;;;;3.00;2.03;;;22.20;99.90;;;;;;5056151;28;20975;-71
2022/05/12 08:23:24;;;;;;;4.87;2.40;;;22.30;99.90;;;;;;5073824;28;20397;-72
2022/05/12 08:25:51;;;;;;;5.00;2.50;;;22.50;99.90;;;;;;5073515;28;20408;-72
2022/05/12 08:28:20;;;;;;;3.83;2.60;;;22.70;99.90;;;;;;5073586;28;20455;-72
2022/05/12 08:30:48;;;;;;;2.20;2.00;;;23.00;99.90;;;;;;5073682;28;20412;-72
2022/05/12 08:33:14;;;;;;;2.70;2.30;;;23.10;99.80;;;;;;5073655;28;20831;-73
2022/05/12 08:35:40;;;;;;;3.40;2.73;;;23.00;99.80;;;;;;5056257;28;20396;-70
2022/05/12 08:38:06;;;;;;;2.10;1.87;;;22.80;99.70;;;;;;5074097;28;20447;-70
2022/05/12 08:41:06;;;;;;;4.03;2.43;;;22.80;99.90;;;;;;5073628;28;20408;-71
2022/05/12 08:43:59;;;;;;;5.20;2.37;;;22.90;99.90;;;;;;5073365;28;20420;-71
2022/05/12 08:46:44;;;;;;;3.17;2.33;;;23.00;99.80;;;;;;5062499;28;20447;-71
2022/05/12 08:49:16;;;;;;;2.93;2.50;;;22.80;99.90;;;;;;5073112;28;21035;-70
2022/05/12 08:51:44;;;;;;;3.20;2.57;;;22.70;99.60;;;;;;5073872;28;20431;-71
2022/05/12 08:54:14;;;;;;;2.50;2.10;;;22.70;99.90;;;;;;5055286;28;20420;-70
2022/05/12 08:56:40;;;;;;;2.80;2.23;;;22.60;99.90;;;;;;5055148;28;20462;-70
2022/05/12 08:59:06;;;;;;;3.33;2.13;;;22.80;99.90;;;;;;5099000;22;20483;-76
2022/05/12 09:01:41;;;;;;;2.60;2.40;;;22.80;99.90;;;;;;5083036;28;20668;-71
2022/05/12 09:04:31;;;;;;;2.93;2.40;;;23.20;99.50;;;;;;5091706;28;20658;-74
2022/05/12 09:07:22;;;;;;;3.50;2.77;;;23.20;99.50;;;;;;5092514;28;20459;-74
2022/05/12 09:10:10;;;;;;;5.30;3.10;;;23.20;99.50;;;;;;5088349;28;20424;-73
2022/05/12 09:12:45;;;;;;;3.10;2.10;;;23.30;99.40;;;;;;5073221;28;20384;-72
2022/05/12 09:15:27;;;;;;;3.63;3.00;;;23.30;99.40;;;;;;5072462;28;20384;-72
2022/05/12 09:17:59;;;;;;;3.13;2.50;;;23.00;99.40;;;;;;5071163;28;20436;-72
2022/05/12 09:20:27;;;;;;;4.07;3.00;;;23.10;99.50;;;;;;5072686;28;20415;-73
2022/05/12 09:22:53;;;;;;;5.77;2.80;;;23.50;99.30;;;;;;5071989;28;20511;-71
2022/05/12 09:25:38;;;;;;;4.30;2.97;;;23.80;99.00;;;;;;5054342;28;20509;-70
2022/05/12 09:28:19;;;;;;;4.60;2.70;;;24.10;98.00;;;;;;5072378;28;20182;-70
2022/05/12 09:30:48;;;;;;;3.60;3.30;;;24.10;98.40;;;;;;5071740;28;20892;-73
2022/05/12 09:33:24;;;;;;;2.90;2.70;;;24.20;98.20;;;;;;5072290;28;20408;-74
2022/05/12 09:36:01;;;;;;;3.40;2.90;;;24.30;97.80;;;;;;5071003;28;20412;-73
2022/05/12 09:38:27;;;;;;;3.67;3.37;;;24.20;97.60;;;;;;5071059;28;20451;-73
2022/05/12 09:40:54;;;;;;;3.50;3.20;;;24.20;98.30;;;;;;5071205;28;20562;-75
2022/05/12 09:43:28;;;;;;;3.83;3.43;;;24.20;97.60;;;;;;5072280;28;20411;-74
2022/05/12 09:46:33;;;;;;;3.77;3.40;;;24.10;97.60;;;;;;5072755;28;20392;-74
2022/05/12 09:49:21;;;;;;;3.93;3.63;;;24.00;97.80;;;;;;5063573;28;20500;-73
2022/05/12 09:51:47;;;;;;;4.00;3.50;;;24.20;97.90;;;;;;5072176;28;20720;-72
2022/05/12 09:54:42;;;;;;;4.53;3.73;;;24.40;97.50;;;;;;5072621;28;20786;-74
2022/05/12 09:57:10;;;;;;;4.33;3.30;;;24.60;96.80;;;;;;5058270;28;20427;-74
2022/05/12 09:59:37;;;;;;;6.03;3.50;;;24.90;97.20;;;;;;5053137;28;20539;-73
2022/05/12 10:02:05;;;;;;;6.60;3.97;;;25.40;96.60;;;;;;5072046;28;20400;-73
2022/05/12 10:10:18;;;;;;;5.27;3.07;;;25.40;95.50;;;;;;5072361;28;20403;-73
2022/05/12 10:13:08;;;;;;;3.10;2.67;;;25.40;95.70;;;;;;5071668;28;20793;-73
2022/05/12 10:15:37;;;;;;;4.13;2.70;;;25.40;95.80;;;;;;5072064;28;20468;-73
2022/05/12 10:18:20;;;;;;;6.03;3.07;;;25.60;95.70;;;;;;5074818;28;20833;-73
2022/05/12 10:20:52;;;;;;;3.87;2.90;;;25.20;96.00;;;;;;5076091;28;20413;-73
2022/05/12 10:23:24;;;;;;;3.90;3.23;;;24.90;95.90;;;;;;5076004;28;20383;-72
2022/05/12 10:26:04;;;;;;;3.77;3.23;;;25.10;95.90;;;;;;5075904;28;20391;-72
2022/05/12 10:28:51;;;;;;;4.07;2.67;;;24.80;95.90;;;;;;5075380;28;20428;-73
2022/05/12 10:31:32;;;;;;;3.30;3.00;;;24.80;96.20;;;;;;5075167;28;20384;-72
2022/05/12 10:34:07;;;;;;;4.50;3.50;;;25.00;97.00;;;;;;5075094;28;20428;-72
2022/05/12 10:36:33;;;;;;;3.50;3.17;;;25.10;96.00;;;;;;5074754;28;20392;-72
2022/05/12 10:39:27;;;;;;;5.20;3.30;;;25.00;96.20;;;;;;5075192;28;20501;-72
2022/05/12 10:41:53;;;;;;;5.40;3.00;;;25.20;96.00;;;;;;5075479;28;20166;-72
2022/05/12 10:44:30;;;;;;;3.80;3.50;;;25.50;95.30;;;;;;5075171;28;20817;-72
2022/05/12 10:47:09;;;;;;;4.00;3.60;;;25.40;95.50;;;;;;5075150;28;20182;-72
2022/05/12 10:49:41;;;;;;;3.73;2.83;;;25.50;94.70;;;;;;5074276;28;20454;-72
2022/05/12 10:52:43;;;;;;;3.10;2.90;;;25.80;95.10;;;;;;5075226;28;20469;-72
2022/05/12 10:55:18;;;;;;;5.03;3.40;;;26.00;94.60;;;;;;5074908;28;20419;-72
2022/05/12 10:58:04;;;;;;;3.77;3.47;;;26.40;93.80;;;;;;5074755;28;20412;-73
2022/05/12 11:00:36;;;;;;;4.33;3.00;;;26.30;93.40;;;;;;5072623;28;20424;-73
2022/05/12 11:03:13;;;;;;;6.70;3.17;;;26.30;93.30;;;;;;5074591;28;20804;-73
2022/05/12 11:05:48;;;;;;;4.10;3.23;;;26.60;92.90;;;;;;5090053;28;20416;-73
2022/05/12 11:08:16;;;;;;;3.83;3.43;;;26.60;92.80;;;;;;5074725;28;20412;-72
2022/05/12 11:10:47;;;;;;;3.70;3.40;;;26.80;92.60;;;;;;5073637;28;20858;-72
2022/05/12 11:13:27;;;;;;;4.07;2.90;;;26.60;91.80;;;;;;5074965;28;20384;-72
2022/05/12 11:16:03;;;;;;;3.67;3.30;;;26.70;91.90;;;;;;5075170;28;20812;-73
2022/05/12 11:18:59;;;;;;;3.63;3.33;;;26.40;92.70;;;;;;5074989;28;20822;-72
2022/05/12 11:21:29;;;;;;;3.57;3.27;;;27.90;91.90;;;;;;5074610;28;20392;-71
2022/05/12 11:24:04;;;;;;;4.43;3.60;;;29.90;85.50;;;;;;5074059;28;20389;-71
2022/05/12 11:26:48;;;;;;;3.70;3.03;;;28.80;86.40;;;;;;5074187;28;20442;-71
2022/05/12 11:32:09;;;;;;;3.30;3.10;;;29.10;86.30;;;;;;5075015;28;20446;-72
2022/05/12 11:34:37;;;;;;;3.60;3.30;;;28.70;85.40;;;;;;5074484;28;20389;-71
2022/05/12 11:37:34;;;;;;;4.30;3.50;;;28.10;87.00;;;;;;5073963;28;21004;-71
2022/05/12 11:40:08;;;;;;;3.50;3.10;;;28.40;87.60;;;;;;5069278;28;20543;-71
2022/05/12 11:45:48;;;;;;;5.10;3.30;;;29.70;81.00;;;;;;5070527;28;20388;-73
2022/05/12 11:48:31;;;;;;;7.03;3.70;;;29.10;82.00;;;;;;5055635;28;20803;-73
2022/05/12 11:51:29;;;;;;;3.97;3.57;;;29.50;81.00;;;;;;5074018;28;20416;-71
2022/05/12 11:53:59;;;;;;;6.50;3.67;;;30.00;80.50;;;;;;5071834;28;20416;-73
2022/05/12 11:56:40;;;;;;;4.90;3.70;;;31.80;74.90;;;;;;5073624;28;20388;-73
2022/05/12 11:59:13;;;;;;;5.53;3.80;;;31.40;74.10;;;;;;5073289;28;20470;-71
2022/05/12 12:01:39;;;;;;;4.67;3.33;;;32.20;71.90;;;;;;5073500;28;20396;-73
2022/05/12 12:04:05;;;;;;;5.10;3.83;;;31.80;73.30;;;;;;5073725;28;20725;-72
2022/05/12 12:06:52;;;;;;;4.20;3.80;;;31.40;72.90;;;;;;5073579;28;20163;-71
2022/05/12 12:09:37;;;;;;;3.77;3.47;;;31.90;70.00;;;;;;5072689;28;20838;-72
2022/05/12 12:12:06;;;;;;;20.07;4.80;;;31.50;71.00;;;;;;5066150;28;20824;-71
2022/05/12 12:14:57;;;;;;;6.17;3.40;;;31.00;73.30;;;;;;5073329;28;20432;-71
2022/05/12 12:17:25;;;;;;;5.23;3.10;;;31.60;70.10;;;;;;5068238;28;20526;-73
2022/05/12 12:19:54;;;;;;;6.03;3.50;;;30.90;70.50;;;;;;5073565;28;20436;-70
2022/05/12 12:22:25;;;;;;;4.70;3.60;;;30.60;71.30;;;;;;5073265;28;20452;-72
2022/05/12 12:25:05;;;;;;;4.23;3.93;;;30.60;72.00;;;;;;5072817;28;20506;-72
2022/05/12 12:28:00;;;;;;;6.03;3.67;;;31.60;70.00;;;;;;5073478;28;20385;-72
2022/05/12 12:30:31;;;;;;;4.33;4.03;;;32.80;66.10;;;;;;5067575;28;20832;-71
2022/05/12 12:33:19;;;;;;;3.80;3.50;;;32.90;65.90;;;;;;5073377;28;20381;-72
2022/05/12 12:36:04;;;;;;;4.20;3.53;;;33.30;64.20;;;;;;5073064;28;20412;-73
2022/05/12 12:38:53;;;;;;;9.40;4.83;;;32.70;65.20;;;;;;5072828;28;20549;-72
2022/05/12 12:41:30;;;;;;;4.03;3.73;;;33.60;63.20;;;;;;5051949;28;20432;-71
2022/05/12 12:43:59;;;;;;;10.73;4.93;;;32.50;64.30;;;;;;5072934;28;20400;-71
2022/05/12 12:46:33;;;;;;;3.93;3.50;;;31.90;65.30;;;;;;5073113;28;20801;-72
2022/05/12 12:49:13;;;;;;;5.13;3.10;;;31.80;66.10;;;;;;5072737;28;20470;-71
2022/05/12 12:51:40;;;;;;;3.50;3.10;;;32.50;64.30;;;;;;5073064;28;20395;-72
2022/05/12 12:57:19;;;;;;;4.10;3.30;;;31.10;67.60;;;;;;5073095;28;20426;-71
2022/05/12 12:59:52;;;;;;;7.23;3.83;;;31.20;68.10;;;;;;5073033;28;20518;-72
2022/05/12 13:02:44;;;;;;;4.30;3.90;;;30.80;67.80;;;;;;5072918;28;20380;-71
2022/05/12 13:05:21;;;;;;;4.90;3.30;;;30.10;69.20;;;;;;5072612;28;20377;-70
2022/05/12 13:08:02;;;;;;;8.43;4.00;;;29.40;72.50;;;;;;5072798;28;20940;-71
2022/05/12 13:10:31;;;;;;;3.37;3.07;;;29.50;72.60;;;;;;5071934;28;20423;-72
2022/05/12 13:13:05;;;;;;;6.27;3.27;;;29.40;72.60;;;;;;5072235;28;20412;-73
2022/05/12 13:15:33;;;;;;;4.30;3.20;;;29.00;74.30;;;;;;5071418;28;20489;-73
2022/05/12 13:18:01;;;;;;;3.00;2.80;;;28.40;76.50;;;;;;5072384;28;20764;-74
2022/05/12 13:20:38;;;;;;;4.27;3.20;;;28.00;78.40;;;;;;5070830;28;20483;-75
2022/05/12 13:23:09;;;;;;;3.30;3.00;;;28.10;78.40;;;;;;5072005;28;20416;-73
2022/05/12 13:25:41;;;;;;;6.37;3.50;;;28.30;78.00;;;;;;5071795;28;20408;-74
2022/05/12 13:28:12;;;;;;;4.47;3.00;;;28.80;77.20;;;;;;5072244;28;20444;-75